Terminal Aerodrome Forecast
Issued by NWS Tampa Bay Area, FL

Home | Current Version | Previous Version | Text Only | Print | Product List | Glossary On
Versions: 1 2 3 4 5 6 7 8 9 10 11 12 13 14 15 16 17 18 19 20 21
000
FTUS42 KTBW 051300 CCA
TAFSRQ
TAF COR
KSRQ 051326Z 0513/0612 14005KT 4SM BR SCT020
     FM051400 16009KT P6SM SCT035
     FM051900 20012KT P6SM SCT035
     FM060200 25004KT P6SM SCT250
     FM060900 VRB03KT 4SM BR SCT005=

USA.gov is the U.S. government's official web portal to all federal, state and local government web resources and services.